createdAt,value
2023-03-28T00:00:13.008Z,99911.47
2023-03-28T00:03:19.334Z,99910.97
2023-03-28T00:06:22.324Z,99914.88
2023-03-28T00:09:25.830Z,99945.09
2023-03-28T00:12:28.702Z,99953.84
2023-03-28T00:15:31.136Z,99964.06
2023-03-28T00:18:37.632Z,99965.59
2023-03-28T00:21:47.073Z,99949.94
2023-03-28T00:24:50.790Z,99962.81
2023-03-28T00:28:37.418Z,99959.19
2023-03-28T00:35:15.957Z,99993.31
2023-03-28T00:38:18.540Z,100003.47
2023-03-28T00:41:25.377Z,100018.31
2023-03-28T00:44:54.996Z,99954.44
2023-03-28T00:48:02.179Z,100012.97
2023-03-28T00:51:05.475Z,100005.97
2023-03-28T00:54:12.060Z,99977.00
2023-03-28T00:57:16.652Z,100003.63
2023-03-28T01:00:21.140Z,100051.06
2023-03-28T01:03:33.683Z,100033.41
2023-03-28T01:06:46.407Z,100017.53
2023-03-28T01:09:50.594Z,100029.31
2023-03-28T01:12:56.093Z,100057.59
2023-03-28T01:15:59.690Z,100041.00
2023-03-28T01:19:02.785Z,100068.50
2023-03-28T01:22:26.779Z,100035.56
2023-03-28T01:25:35.601Z,100055.62
2023-03-28T01:28:50.990Z,100068.97
2023-03-28T01:32:11.953Z,100069.38
2023-03-28T01:36:00.395Z,100074.00
2023-03-28T01:39:23.192Z,100069.78
2023-03-28T01:42:36.556Z,100092.06
2023-03-28T01:45:58.092Z,100061.22
2023-03-28T01:49:11.744Z,100068.78
2023-03-28T01:52:23.461Z,100098.50
2023-03-28T01:55:33.055Z,100074.66
2023-03-28T01:59:08.128Z,100070.53
2023-03-28T02:02:30.077Z,100100.88
2023-03-28T02:05:35.432Z,100110.34
2023-03-28T02:08:42.417Z,100112.16
2023-03-28T02:11:49.865Z,100109.97
2023-03-28T02:14:57.638Z,100089.41
2023-03-28T02:18:07.017Z,100114.31
2023-03-28T02:21:17.356Z,100105.16
2023-03-28T02:24:20.979Z,100121.16
2023-03-28T02:27:24.651Z,100117.69
2023-03-28T02:30:28.442Z,100126.19
2023-03-28T02:33:41.260Z,100075.84
2023-03-28T02:37:10.251Z,100130.72
2023-03-28T02:40:21.333Z,100122.47
2023-03-28T02:43:37.985Z,100127.97
2023-03-28T02:46:46.257Z,100131.19
2023-03-28T02:50:23.036Z,100132.37
2023-03-28T02:53:44.728Z,100133.03
2023-03-28T02:57:11.953Z,100143.91
2023-03-28T03:00:18.705Z,100148.87
2023-03-28T03:03:23.842Z,100129.41
2023-03-28T03:06:26.674Z,100146.59
2023-03-28T03:09:29.125Z,100150.88
2023-03-28T03:12:31.704Z,100141.75
2023-03-28T03:15:35.565Z,100136.94
2023-03-28T03:18:38.737Z,100137.56
2023-03-28T03:21:41.377Z,100181.97
2023-03-28T03:24:44.099Z,100143.56
2023-03-28T03:27:46.465Z,100139.00
2023-03-28T03:30:49.178Z,100184.75
2023-03-28T03:33:52.797Z,100184.28
2023-03-28T03:36:56.238Z,100203.22
2023-03-28T03:39:58.753Z,100179.09
2023-03-28T03:43:02.329Z,100212.94
2023-03-28T03:46:05.116Z,100186.78
2023-03-28T03:49:09.370Z,100206.03
2023-03-28T03:52:11.738Z,100201.97
2023-03-28T03:55:14.708Z,100236.59
2023-03-28T03:58:18.747Z,100233.69
2023-03-28T04:01:25.933Z,100227.13
2023-03-28T04:04:29.644Z,100234.34
2023-03-28T04:07:32.956Z,100222.44
2023-03-28T04:10:35.885Z,100251.63
2023-03-28T04:13:38.264Z,100230.44
2023-03-28T04:16:41.845Z,100237.56
2023-03-28T04:19:45.928Z,100226.19
2023-03-28T04:22:49.107Z,100231.00
2023-03-28T04:26:00.502Z,100225.62
2023-03-28T04:29:13.580Z,100254.56
2023-03-28T04:32:16.526Z,100232.41
2023-03-28T04:35:21.156Z,100275.03
2023-03-28T04:38:27.248Z,100237.91
2023-03-28T04:41:33.143Z,100281.50
2023-03-28T04:44:38.400Z,100282.16
2023-03-28T04:47:41.057Z,100280.25
2023-03-28T04:50:44.875Z,100254.84
2023-03-28T04:53:48.280Z,100299.03
2023-03-28T04:57:11.863Z,100282.16
2023-03-28T05:00:17.266Z,100291.63
2023-03-28T05:03:24.766Z,100291.72
2023-03-28T05:06:31.705Z,100306.66
2023-03-28T05:09:36.441Z,100306.97
2023-03-28T05:12:42.176Z,100273.09
2023-03-28T05:15:47.239Z,100297.94
2023-03-28T05:18:50.234Z,100308.81
2023-03-28T05:21:54.143Z,100295.81
2023-03-28T05:24:56.773Z,100280.63
2023-03-28T05:27:59.599Z,100283.94
2023-03-28T05:31:02.588Z,100304.53
2023-03-28T05:34:05.311Z,100332.69
2023-03-28T05:37:09.155Z,100318.34
2023-03-28T05:40:13.285Z,100342.13
2023-03-28T05:43:16.712Z,100313.47
2023-03-28T05:46:19.287Z,100342.91
2023-03-28T05:49:22.608Z,100328.31
2023-03-28T05:52:27.301Z,100326.06
2023-03-28T05:55:30.198Z,100354.94
2023-03-28T05:58:32.493Z,100356.38
2023-03-28T06:01:37.105Z,100345.81
2023-03-28T06:04:40.310Z,100351.50
2023-03-28T06:07:45.270Z,100382.84
2023-03-28T06:10:48.550Z,100352.44
2023-03-28T06:13:51.256Z,100382.16
2023-03-28T06:16:54.207Z,100397.88
2023-03-28T06:19:56.826Z,100377.44
2023-03-28T06:22:59.665Z,100412.53
2023-03-28T06:26:02.604Z,100413.91
2023-03-28T06:29:06.996Z,100419.81
2023-03-28T06:32:09.722Z,100392.56
2023-03-28T06:35:16.077Z,100394.78
2023-03-28T06:38:19.614Z,100399.69
2023-03-28T06:41:23.493Z,100427.72
2023-03-28T06:44:26.154Z,100439.19
2023-03-28T06:47:32.272Z,100445.91
2023-03-28T06:50:34.687Z,100448.66
2023-03-28T06:53:37.392Z,100427.81
2023-03-28T06:56:39.838Z,100449.25
2023-03-28T06:59:42.668Z,100447.56
2023-03-28T07:02:47.878Z,100432.03
2023-03-28T07:05:50.751Z,100421.59
2023-03-28T07:08:53.705Z,100441.81
2023-03-28T07:11:58.987Z,100460.03
2023-03-28T07:15:01.360Z,100437.03
2023-03-28T07:18:05.466Z,100450.72
2023-03-28T07:21:09.489Z,100451.38
2023-03-28T07:24:12.338Z,100458.72
2023-03-28T07:27:16.643Z,100436.22
2023-03-28T07:30:23.454Z,100458.03
2023-03-28T07:33:34.223Z,100424.06
2023-03-28T07:36:40.111Z,100464.78
2023-03-28T07:39:43.902Z,100435.41
2023-03-28T07:42:49.252Z,100428.03
2023-03-28T07:45:54.032Z,100453.69
2023-03-28T07:48:56.853Z,100463.63
2023-03-28T07:52:01.080Z,100469.31
2023-03-28T07:55:04.182Z,100477.50
2023-03-28T07:58:11.057Z,100476.25
2023-03-28T08:01:14.233Z,100469.09
2023-03-28T08:04:17.735Z,100474.81
2023-03-28T08:07:20.785Z,100469.59
2023-03-28T08:10:25.495Z,100474.78
2023-03-28T08:13:27.865Z,100479.72
2023-03-28T08:16:32.884Z,100454.81
2023-03-28T08:19:35.392Z,100485.75
2023-03-28T08:22:41.180Z,100473.41
2023-03-28T08:25:44.663Z,100466.44
2023-03-28T08:28:48.065Z,100463.87
2023-03-28T08:31:50.661Z,100486.50
2023-03-28T08:34:53.449Z,100485.84
2023-03-28T08:37:56.837Z,100482.25
2023-03-28T08:41:41.879Z,100479.56
2023-03-28T08:45:11.600Z,100459.81
2023-03-28T08:48:22.041Z,100464.28
2023-03-28T08:51:39.193Z,100462.66
2023-03-28T08:54:51.690Z,100469.22
2023-03-28T08:57:55.756Z,100457.91
2023-03-28T09:00:58.291Z,100469.44
2023-03-28T09:04:02.053Z,100466.19
2023-03-28T09:07:24.503Z,100450.97
2023-03-28T09:10:39.464Z,100454.59
2023-03-28T09:13:51.777Z,100451.75
2023-03-28T09:17:20.487Z,100447.91
2023-03-28T09:20:52.467Z,100451.41
2023-03-28T09:24:09.023Z,100457.16
2023-03-28T09:27:29.689Z,100439.22
2023-03-28T09:30:38.327Z,100457.09
2023-03-28T09:33:46.502Z,100449.19
2023-03-28T09:36:56.338Z,100469.56
2023-03-28T09:40:12.307Z,100472.19
2023-03-28T09:43:34.887Z,100459.06
2023-03-28T09:46:41.734Z,100486.09
2023-03-28T09:49:47.150Z,100462.31
2023-03-28T09:52:56.814Z,100456.84
2023-03-28T09:56:26.136Z,100493.06
2023-03-28T09:59:31.802Z,100462.78
2023-03-28T10:02:34.937Z,100465.22
2023-03-28T10:05:44.112Z,100474.63
2023-03-28T10:08:47.620Z,100460.59
2023-03-28T10:11:54.990Z,100488.94
2023-03-28T10:15:00.586Z,100469.78
2023-03-28T10:18:05.893Z,100459.94
2023-03-28T10:21:14.629Z,100446.50
2023-03-28T10:24:21.943Z,100464.00
2023-03-28T10:27:40.091Z,100441.34
2023-03-28T10:30:43.815Z,100476.28
2023-03-28T10:33:52.597Z,100442.00
2023-03-28T10:36:55.829Z,100443.84
2023-03-28T10:40:05.199Z,100454.41
2023-03-28T10:43:15.775Z,100464.56
2023-03-28T10:46:32.993Z,100431.47
2023-03-28T10:49:44.949Z,100455.28
2023-03-28T10:52:58.784Z,100491.37
2023-03-28T10:56:41.489Z,100484.91
2023-03-28T11:00:13.449Z,100490.63
2023-03-28T11:03:36.457Z,100480.44
2023-03-28T11:06:57.743Z,100489.72
2023-03-28T11:10:37.306Z,100484.28
2023-03-28T11:14:00.138Z,100480.81
2023-03-28T11:17:11.616Z,100469.62
2023-03-28T11:20:44.616Z,100480.97
2023-03-28T11:24:02.351Z,100469.19
2023-03-28T11:27:16.289Z,100478.78
2023-03-28T11:30:26.696Z,100457.87
2023-03-28T11:33:39.758Z,100477.56
2023-03-28T11:36:53.438Z,100468.31
2023-03-28T11:40:20.680Z,100477.13
2023-03-28T11:43:33.921Z,100482.94
2023-03-28T11:46:46.978Z,100495.47
2023-03-28T11:50:02.629Z,100478.72
2023-03-28T11:53:13.478Z,100482.41
2023-03-28T11:56:28.278Z,100446.56
2023-03-28T11:59:35.824Z,100489.69
2023-03-28T12:02:52.860Z,100493.22
2023-03-28T12:06:08.950Z,100463.81
2023-03-28T12:09:34.177Z,100495.38
2023-03-28T12:12:53.065Z,100475.38
2023-03-28T12:16:06.542Z,100498.34
2023-03-28T12:19:17.272Z,100461.38
2023-03-28T12:22:43.937Z,100501.50
2023-03-28T12:26:02.488Z,100495.00
2023-03-28T12:29:22.823Z,100485.25
2023-03-28T12:32:35.099Z,100485.81
2023-03-28T12:35:47.296Z,100479.94
2023-03-28T12:39:06.031Z,100505.75
2023-03-28T12:42:13.977Z,100497.63
2023-03-28T12:45:28.150Z,100514.69
2023-03-28T12:48:41.196Z,100496.78
2023-03-28T12:51:48.953Z,100494.13
2023-03-28T12:55:02.189Z,100505.94
2023-03-28T12:58:24.695Z,100497.87
2023-03-28T13:01:41.292Z,100479.78
2023-03-28T13:05:10.088Z,100517.69
2023-03-28T13:08:18.657Z,100515.09
2023-03-28T13:11:39.904Z,100520.75
2023-03-28T13:14:42.910Z,100529.00
2023-03-28T13:18:17.264Z,100508.00
2023-03-28T13:21:41.809Z,100541.75
2023-03-28T13:24:44.516Z,100545.50
2023-03-28T13:27:54.468Z,100543.16
2023-03-28T13:31:24.534Z,100536.34
2023-03-28T13:34:33.894Z,100547.19
2023-03-28T13:37:42.760Z,100548.91
2023-03-28T13:40:54.876Z,100588.72
2023-03-28T13:44:00.893Z,100593.06
2023-03-28T13:47:03.595Z,100602.06
2023-03-28T13:50:15.410Z,100590.84
2023-03-28T13:53:17.832Z,100595.50
2023-03-28T13:56:23.147Z,100613.16
2023-03-28T13:59:32.968Z,100611.53
2023-03-28T14:02:41.448Z,100575.34
2023-03-28T14:05:45.976Z,100605.78
2023-03-28T14:08:53.417Z,100597.38
2023-03-28T14:12:09.562Z,100618.25
2023-03-28T14:15:16.670Z,100621.81
2023-03-28T14:18:32.442Z,100619.53
2023-03-28T14:21:35.233Z,100624.06
2023-03-28T14:24:38.002Z,100597.31
2023-03-28T14:27:49.253Z,100601.19
2023-03-28T14:30:52.236Z,100619.75
2023-03-28T14:33:54.522Z,100609.06
2023-03-28T14:36:58.773Z,100628.13
2023-03-28T14:40:15.803Z,100632.97
2023-03-28T14:43:29.669Z,100635.84
2023-03-28T14:46:33.500Z,100614.75
2023-03-28T14:49:37.512Z,100644.78
2023-03-28T14:52:42.366Z,100612.16
2023-03-28T14:55:46.568Z,100624.25
2023-03-28T14:58:50.287Z,100630.34
2023-03-28T15:01:53.142Z,100655.81
2023-03-28T15:05:01.363Z,100639.97
2023-03-28T15:08:06.145Z,100642.34
2023-03-28T15:11:12.606Z,100638.22
2023-03-28T15:14:27.877Z,100665.34
2023-03-28T15:17:32.555Z,100657.97
2023-03-28T15:20:37.948Z,100652.38
2023-03-28T15:23:50.699Z,100662.00
2023-03-28T15:26:57.461Z,100637.37
2023-03-28T15:30:12.839Z,100641.84
2023-03-28T15:33:21.597Z,100680.63
2023-03-28T15:36:34.788Z,100650.16
2023-03-28T15:39:37.625Z,100659.28
2023-03-28T15:42:40.865Z,100660.50
2023-03-28T15:45:44.275Z,100683.25
2023-03-28T15:48:47.096Z,100690.53
2023-03-28T15:51:52.758Z,100692.66
2023-03-28T15:54:56.982Z,100709.59
2023-03-28T15:58:00.422Z,100716.31
2023-03-28T16:01:19.815Z,100690.91
2023-03-28T16:04:31.501Z,100704.25
2023-03-28T16:07:46.884Z,100726.88
2023-03-28T16:10:49.559Z,100738.50
2023-03-28T16:13:56.380Z,100709.81
2023-03-28T16:17:00.271Z,100757.03
2023-03-28T16:20:17.259Z,100738.47
2023-03-28T16:23:21.348Z,100766.13
2023-03-28T16:26:23.684Z,100772.78
2023-03-28T16:29:26.381Z,100786.09
2023-03-28T16:32:28.763Z,100777.41
2023-03-28T16:35:32.395Z,100767.56
2023-03-28T16:38:34.840Z,100774.97
2023-03-28T16:41:37.623Z,100800.78
2023-03-28T16:44:40.352Z,100807.06
2023-03-28T16:47:43.179Z,100784.72
2023-03-28T16:50:53.625Z,100818.00
2023-03-28T16:53:56.328Z,100782.19
2023-03-28T16:56:58.751Z,100800.44
2023-03-28T17:00:05.334Z,100818.06
2023-03-28T17:03:08.325Z,100813.81
2023-03-28T17:06:12.000Z,100839.06
2023-03-28T17:09:14.376Z,100852.16
2023-03-28T17:12:18.327Z,100824.16
2023-03-28T17:15:21.699Z,100857.25
2023-03-28T17:18:24.361Z,100841.03
2023-03-28T17:21:26.950Z,100878.53
2023-03-28T17:24:30.086Z,100875.13
2023-03-28T17:27:32.728Z,100888.22
2023-03-28T17:30:37.219Z,100858.59
2023-03-28T17:33:40.337Z,100894.87
2023-03-28T17:36:44.261Z,100865.56
2023-03-28T17:39:47.307Z,100858.31
2023-03-28T17:42:49.924Z,100858.06
2023-03-28T17:45:55.375Z,100883.03
2023-03-28T17:48:58.564Z,100905.16
2023-03-28T17:52:01.122Z,100890.28
2023-03-28T17:55:06.137Z,100912.03
2023-03-28T17:58:08.453Z,100930.59
2023-03-28T18:01:14.728Z,100902.97
2023-03-28T18:04:17.919Z,100929.59
2023-03-28T18:07:25.708Z,100931.28
2023-03-28T18:10:28.504Z,100933.16
2023-03-28T18:13:30.939Z,100950.41
2023-03-28T18:16:33.802Z,100951.47
2023-03-28T18:19:43.871Z,100936.84
2023-03-28T18:22:46.868Z,100956.41
2023-03-28T18:25:51.139Z,100961.34
2023-03-28T18:28:53.834Z,100940.12
2023-03-28T18:31:56.201Z,100966.28
2023-03-28T18:34:58.848Z,100940.12
2023-03-28T18:38:01.291Z,100945.06
2023-03-28T18:41:06.365Z,100944.00
2023-03-28T18:44:10.496Z,100981.06
2023-03-28T18:47:13.109Z,100943.03
2023-03-28T18:50:15.630Z,100959.72
2023-03-28T18:53:18.772Z,100992.38
2023-03-28T18:56:22.023Z,100948.53
2023-03-28T18:59:25.721Z,100984.44
2023-03-28T19:02:29.048Z,100980.91
2023-03-28T19:05:34.038Z,100954.25
2023-03-28T19:08:36.737Z,100958.38
2023-03-28T19:11:40.069Z,100990.81
2023-03-28T19:14:42.478Z,100954.06
2023-03-28T19:17:45.828Z,100932.88
2023-03-28T19:20:54.888Z,100994.97
2023-03-28T19:23:57.654Z,100990.88
2023-03-28T19:27:01.501Z,100966.13
2023-03-28T19:30:08.050Z,100956.88
2023-03-28T19:33:12.168Z,100978.66
2023-03-28T19:36:15.097Z,100964.53
2023-03-28T19:39:17.656Z,100947.91
2023-03-28T19:42:21.376Z,100944.69
2023-03-28T19:45:24.363Z,100948.22
2023-03-28T19:48:27.681Z,100976.50
2023-03-28T19:51:30.114Z,100954.25
2023-03-28T19:54:32.814Z,100986.88
2023-03-28T19:57:35.135Z,100987.41
2023-03-28T20:00:37.754Z,100990.16
2023-03-28T20:03:40.814Z,100981.75
2023-03-28T20:06:43.188Z,100985.59
2023-03-28T20:09:51.827Z,100992.13
2023-03-28T20:12:54.305Z,100989.69
2023-03-28T20:15:56.952Z,100954.28
2023-03-28T20:19:00.391Z,100946.38
2023-03-28T20:22:04.566Z,100976.06
2023-03-28T20:25:07.424Z,100942.59
2023-03-28T20:28:10.174Z,100946.91
2023-03-28T20:31:13.285Z,100951.53
2023-03-28T20:34:15.965Z,100978.22
2023-03-28T20:37:18.490Z,100974.44
2023-03-28T20:40:25.225Z,100955.09
2023-03-28T20:43:29.510Z,100984.22
2023-03-28T20:46:36.870Z,100985.59
2023-03-28T20:49:46.334Z,100960.84
2023-03-28T20:52:50.415Z,100946.91
2023-03-28T20:56:03.494Z,100994.03
2023-03-28T20:59:08.360Z,100984.25
2023-03-28T21:02:11.048Z,100987.53
2023-03-28T21:05:14.680Z,100961.94
2023-03-28T21:08:19.676Z,100983.72
2023-03-28T21:11:28.170Z,100975.28
2023-03-28T21:14:30.715Z,100993.53
2023-03-28T21:17:33.368Z,100985.91
2023-03-28T21:20:35.837Z,100969.03
2023-03-28T21:23:39.832Z,100985.91
2023-03-28T21:26:42.404Z,100998.97
2023-03-28T21:29:45.056Z,100979.66
2023-03-28T21:32:47.829Z,100983.47
2023-03-28T21:35:51.812Z,100968.50
2023-03-28T21:38:55.029Z,100964.16
2023-03-28T21:41:57.900Z,100964.69
2023-03-28T21:45:00.940Z,100998.47
2023-03-28T21:48:04.735Z,101003.91
2023-03-28T21:51:07.136Z,100997.38
2023-03-28T21:54:09.766Z,100972.06
2023-03-28T21:57:12.095Z,100997.38
2023-03-28T22:00:15.299Z,101002.56
2023-03-28T22:03:18.441Z,101005.03
2023-03-28T22:06:20.931Z,101001.75
2023-03-28T22:09:23.511Z,101008.31
2023-03-28T22:12:25.862Z,101033.34
2023-03-28T22:15:30.927Z,101035.28
2023-03-28T22:18:34.025Z,101043.16
2023-03-28T22:21:37.570Z,101039.59
2023-03-28T22:24:40.108Z,101021.34
2023-03-28T22:27:42.836Z,101060.87
2023-03-28T22:30:45.617Z,101035.53
2023-03-28T22:33:48.344Z,101066.03
2023-03-28T22:36:50.681Z,101039.06
2023-03-28T22:39:54.475Z,101041.50
2023-03-28T22:42:57.017Z,101024.63
2023-03-28T22:45:59.733Z,101042.62
2023-03-28T22:49:04.574Z,101037.69
2023-03-28T22:52:07.364Z,101048.06
2023-03-28T22:55:13.486Z,101043.69
2023-03-28T22:58:17.141Z,101042.59
2023-03-28T23:01:23.061Z,101031.69
2023-03-28T23:04:27.221Z,101066.59
2023-03-28T23:07:29.702Z,101074.47
2023-03-28T23:10:33.125Z,101081.81
2023-03-28T23:13:35.452Z,101054.53
2023-03-28T23:16:40.874Z,101054.28
2023-03-28T23:19:43.642Z,101084.28
2023-03-28T23:22:48.519Z,101090.81
2023-03-28T23:25:51.452Z,101067.09
2023-03-28T23:28:54.115Z,101100.88
2023-03-28T23:31:56.864Z,101080.16
2023-03-28T23:34:59.695Z,101092.72
2023-03-28T23:38:02.550Z,101113.44
2023-03-28T23:41:06.596Z,101110.41
2023-03-28T23:44:09.295Z,101123.22
2023-03-28T23:47:12.548Z,101115.59
2023-03-28T23:50:14.989Z,101109.34
2023-03-28T23:53:17.589Z,101077.13
2023-03-28T23:56:19.903Z,101098.69
2023-03-28T23:59:23.380Z,101103.56
